Flight Track Log - Related Links

Times and Time Zones

All times are in EDT time to prevent confusion due to time zone crossing. See the VH-ZWO flight status page for this flight to view local times or setup timezone preferences in your user account.

Time Position Orientation Groundspeed Altitude Reporting Facility
EDT Latitude Longitude Course Direction KTS MPH feet Rate Location/Type
02:15PM -32.0940 115.8850 57° Northeast 95 109 400  Level FlightAware
02:16PM -32.0860 115.8970 52° Northeast 114 131 800 1,091 Climbing FlightAware
02:16PM -32.0750 115.9120 49° Northeast 130 150 1,400 1,100 Climbing FlightAware
02:17PM -32.0620 115.9300 50° Northeast 147 169 1,900 1,309 Climbing FlightAware
02:17PM -32.0490 115.9440 42° Northeast 145 167 2,600 1,600 Climbing FlightAware
02:18PM -32.0368 115.9577 42° Northeast 153 176 3,100 1,400 Climbing Aus ATC (RADAR)
02:18PM -32.0330 115.9620 42° Northeast 161 185 3,300 1,500 Climbing FlightAware
02:18PM -32.0180 115.9810 47° Northeast 155 178 4,100 1,527 Climbing FlightAware
02:19PM -32.0034 115.9994 47° Northeast 159 183 4,700 1,200 Climbing Aus ATC (RADAR)
02:19PM -32.0050 115.9970 47° Northeast 165 190 4,600 1,600 Descending FlightAware
02:19PM -31.9900 116.0170 49° Northeast 155 178 5,500 1,600 Climbing FlightAware
02:20PM -31.9750 116.0360 47° Northeast 157 181 6,200 1,418 Climbing FlightAware
02:20PM -31.9620 116.0530 48° Northeast 160 184 6,800 1,418 Climbing FlightAware
02:21PM -31.9480 116.0740 52° Northeast 163 188 7,500 1,350 Climbing FlightAware
02:21PM -31.9430 116.0820 54° Northeast 173 199 7,700 1,114 Climbing FlightAware
02:22PM -31.9300 116.1430 76° East 194 223 8,800 1,292 Climbing FlightAware
02:23PM -31.9160 116.2140 77° East 194 223 10,500 1,378 Climbing FlightAware
02:24PM -31.9022 116.2840 77° East 192 221 11,900 1,286 Climbing Aus ATC (RADAR)
02:24PM -31.9020 116.2870 77° East 202 232 12,000 1,313 Climbing FlightAware
02:25PM -31.8891 116.3542 77° East 196 226 13,300 1,292 Climbing Aus ATC (RADAR)
02:25PM -31.8890 116.3580 77° East 202 232 13,400 1,200 Climbing FlightAware
02:26PM -31.8750 116.4265 77° East 205 236 14,600 1,200 Climbing Aus ATC (RADAR)
02:26PM -31.8720 116.4440 77° East 217 250 14,900 1,300 Climbing FlightAware
02:27PM -31.8618 116.4957 77° East 210 242 15,900 1,200 Climbing Aus ATC (RADAR)
02:28PM -31.8540 116.5350 77° East 222 255 16,500 1,114 Climbing FlightAware
02:28PM -31.8456 116.5778 77° East 214 246 17,200 1,059 Climbing Aus ATC (RADAR)
02:29PM -31.8340 116.6370 77° East 230 265 18,000 843 Climbing FlightAware
02:30PM -31.8170 116.7260 77° East 246 283 18,900 811 Climbing FlightAware
02:30PM -31.8157 116.7335 77° East 237 273 19,000 987 Climbing Aus ATC (RADAR)
02:32PM -31.7962 116.8335 77° East 245 282 20,200 947 Climbing Aus ATC (RADAR)
02:32PM -31.7960 116.8330 77° East 253 291 20,200 800 Level FlightAware
02:33PM -31.7801 116.9146 77° East 247 284 21,000 831 Climbing Aus ATC (RADAR)
02:33PM -31.7790 116.9210 77° East 258 297 21,100 738 Climbing FlightAware
02:34PM -31.7623 117.0040 77° East 252 290 21,800 632 Climbing Aus ATC (RADAR)
02:34PM -31.7540 117.0470 77° East 263 303 22,100 700 Climbing FlightAware
02:35PM -31.7457 117.0875 77° East 256 295 22,500 800 Climbing Aus ATC (RADAR)
02:35PM -31.7410 117.1120 77° East 264 304 22,700 536 Climbing FlightAware
02:36PM -31.7320 117.1590 77° East 266 306 23,000 640 Climbing FlightAware
02:36PM -31.7200 117.2170 76° East 268 308 23,500 706 Climbing FlightAware
02:37PM -31.7105 117.2644 76° East 261 300 23,800 600 Climbing Aus ATC (RADAR)
02:37PM -31.7060 117.2880 76° East 272 313 24,000 627 Climbing FlightAware
02:38PM -31.6930 117.3530 77° East 275 316 24,500 565 Climbing FlightAware
02:39PM -31.6810 117.4110 76° East 275 316 24,800 571 Climbing FlightAware
02:39PM -31.6725 117.4526 76° East 268 308 25,100 450 Climbing Aus ATC (RADAR)
02:39PM -31.6690 117.4710 76° East 284 327 25,100 -105 Level FlightAware
02:40PM -31.6560 117.5340 76° East 297 342 25,000 -71 Descending FlightAware
02:41PM -31.6420 117.6050 77° East 307 353 25,000  Level FlightAware
02:41PM -31.6308 117.6579 77° East 299 344 25,000 150 Level Aus ATC (RADAR)
02:41PM -31.6280 117.6710 77° East 308 354 25,100 105 Climbing FlightAware
02:42PM -31.6130 117.7440 76° East 311 358 25,100 -80 Level FlightAware
02:43PM -31.6030 117.7940 77° East 315 362 25,000 -88 Descending FlightAware
02:43PM -31.5888 117.8647 77° East 310 357 25,000  Level Aus ATC (RADAR)
02:43PM -31.5890 117.8630 77° East 317 365 25,000  Level FlightAware
02:44PM -31.5680 117.9640 76° East 317 365 25,000  Level FlightAware
02:45PM -31.5520 118.0400 76° East 316 364 25,000  Level FlightAware
02:45PM -31.5427 118.0825 76° East 311 358 25,000  Level Aus ATC (RADAR)
02:46PM -31.5370 118.1120 76° East 316 364 25,000  Level FlightAware
02:47PM -31.5210 118.1890 76° East 316 364 25,000  Level FlightAware
02:47PM -31.5090 118.2470 76° East 315 362 25,000  Level FlightAware
02:47PM -31.5008 118.2827 76° East 311 358 25,000  Level Aus ATC (RADAR)
02:48PM -31.4930 118.3230 76° East 316 364 25,000  Level FlightAware
02:48PM -31.4784 118.3910 76° East 309 356 25,000  Level Aus ATC (RADAR)
02:49PM -31.4780 118.3970 76° East 315 362 25,000  Level FlightAware
02:49PM -31.4630 118.4640 75° East 315 362 25,000  Level FlightAware
02:50PM -31.4490 118.5310 76° East 315 362 25,000  Level FlightAware
02:51PM -31.4324 118.6073 76° East 311 358 25,000  Level Aus ATC (RADAR)
02:51PM -31.4330 118.6050 76° East 315 362 25,000  Level FlightAware
02:51PM -31.4190 118.6710 76° East 315 362 25,000  Level FlightAware
02:52PM -31.4111 118.7071 76° East 311 358 25,000  Level Aus ATC (RADAR)
02:52PM -31.4030 118.7460 76° East 314 361 25,000  Level FlightAware
02:53PM -31.3888 118.8145 76° East 308 354 25,000  Level Aus ATC (RADAR)
02:53PM -31.3880 118.8210 76° East 313 360 25,000  Level FlightAware
02:54PM -31.3770 118.8770 77° East 313 360 25,000  Level FlightAware
02:54PM -31.3660 118.9340 77° East 313 360 25,000  Level FlightAware
02:55PM -31.3417 119.0284 77° East 307 353 25,000  Level Aus ATC (RADAR)
02:55PM -31.3520 119.0040 77° East 313 360 25,000  Level FlightAware
02:56PM -31.3410 119.0600 77° East 313 360 25,000  Level FlightAware
02:56PM -31.3300 119.1160 77° East 313 360 25,000 78 Level FlightAware
02:57PM -31.2954 119.2405 77° East 304 350 25,100 62 Climbing Aus ATC (RADAR)
02:58PM -31.2740 119.3373 76° East 302 348 25,100  Level Aus ATC (RADAR)
02:59PM -31.2516 119.4422 76° East 301 346 25,100  Level Aus ATC (RADAR)
03:00PM -31.2261 119.5472 74° East 306 352 25,100  Level Aus ATC (RADAR)
03:02PM -31.1909 119.7234 77° East 304 350 25,100  Level Aus ATC (RADAR)
03:05PM -31.1185 120.0507 75° East 300 -6,470 Descending Aus ATC (Calculated)
03:06PM -31.0988 120.1393 74° East 300  Level Aus ATC (Calculated)
03:07PM -31.0928 120.1638 75° East  Level Estimated
03:07PM -31.0802 120.2223 75° East 300  Level Aus ATC (Calculated)
03:08PM -31.0682 120.2730 75° East  Level Estimated
03:09PM -31.0546 120.3339 75° East  Level Estimated
03:09PM -31.0452 120.3778 74° East 300  Level Aus ATC (Calculated)
03:10PM -31.0355 120.4166 75° East  Level Estimated
03:11PM -31.0210 120.4825 75° East  Level Estimated
03:12PM -31.0018 120.5650 75° East  Level Estimated
03:13PM -30.9825 120.6476 75° East  Level Estimated
03:14PM -30.9632 120.7301 75° East  Level Estimated
03:15PM -30.9439 120.8125 75° East  Level Estimated
03:16PM -30.9245 120.8950 75° East  Level Estimated
03:17PM -30.9050 120.9773 75° East  Level Estimated
03:18PM -30.8855 121.0597 75° East  Level Estimated
03:19PM -30.8660 121.1420 75° East  Level Estimated
03:20PM -30.8463 121.2243 75° East  Level Estimated
03:21PM -30.8267 121.3066 74° East  Level Estimated
03:22PM -30.8070 121.3888 74° East  Level Estimated
03:22PM -30.7894 121.4617 213° Southwest  Level Aus ATC (Calculated)
03:23PM -30.7894 121.4617 74° East  Level Estimated
03:24PM -30.7894 121.4617 213° Southwest  Level Estimated
03:25PM -30.7894 121.4617 213° Southwest  Level Estimated
03:26PM -30.7894 121.4617 213° Southwest  Level Estimated
03:27PM -30.7894 121.4617 213° Southwest  Level Estimated
03:28PM -30.7894 121.4617 213° Southwest  Level Estimated
03:29PM -30.7894 121.4617 213° Southwest  Level Estimated
03:30PM -30.7894 121.4617 213° Southwest  Level Estimated

Login

Don't have an account? Register now (free) for customized features, flight alerts, and more!